sensor_id;sensor_type;location;lat;lon;timestamp;pressure;altitude;pressure_sealevel;temperature;humidity
71195;BME280;58908;51.426;7.714;2023-09-19T00:01:05;98977.31;;;15.18;100.00
71195;BME280;58908;51.426;7.714;2023-09-19T00:03:33;98980.94;;;15.17;100.00
71195;BME280;58908;51.426;7.714;2023-09-19T00:06:02;98988.28;;;15.04;100.00
71195;BME280;58908;51.426;7.714;2023-09-19T00:08:29;98989.91;;;14.96;100.00
71195;BME280;58908;51.426;7.714;2023-09-19T00:10:56;98999.00;;;14.93;100.00
71195;BME280;58908;51.426;7.714;2023-09-19T00:13:28;98999.72;;;14.95;100.00
71195;BME280;58908;51.426;7.714;2023-09-19T00:15:56;98992.47;;;14.97;100.00
71195;BME280;58908;51.426;7.714;2023-09-19T00:18:24;98994.13;;;14.98;100.00
71195;BME280;58908;51.426;7.714;2023-09-19T00:20:57;98999.63;;;15.06;100.00
71195;BME280;58908;51.426;7.714;2023-09-19T00:23:24;99000.16;;;15.00;100.00
71195;BME280;58908;51.426;7.714;2023-09-19T00:25:50;99006.13;;;14.93;100.00
71195;BME280;58908;51.426;7.714;2023-09-19T00:28:17;99009.19;;;14.88;100.00
71195;BME280;58908;51.426;7.714;2023-09-19T00:30:44;99004.53;;;14.81;100.00
71195;BME280;58908;51.426;7.714;2023-09-19T00:33:14;99010.50;;;14.73;100.00
71195;BME280;58908;51.426;7.714;2023-09-19T00:35:46;99013.41;;;14.70;100.00
71195;BME280;58908;51.426;7.714;2023-09-19T00:38:14;99019.19;;;14.75;100.00
71195;BME280;58908;51.426;7.714;2023-09-19T00:40:43;99018.22;;;14.76;100.00
71195;BME280;58908;51.426;7.714;2023-09-19T00:43:09;99017.00;;;14.60;100.00
71195;BME280;58908;51.426;7.714;2023-09-19T00:45:36;99026.31;;;14.54;100.00
71195;BME280;58908;51.426;7.714;2023-09-19T00:48:03;99025.28;;;14.46;100.00
71195;BME280;58908;51.426;7.714;2023-09-19T00:50:37;99027.69;;;14.49;100.00
71195;BME280;58908;51.426;7.714;2023-09-19T00:53:06;99038.28;;;14.49;100.00
71195;BME280;58908;51.426;7.714;2023-09-19T00:55:34;99038.66;;;14.44;100.00
71195;BME280;58908;51.426;7.714;2023-09-19T00:58:02;99045.41;;;14.48;100.00
71195;BME280;58908;51.426;7.714;2023-09-19T01:00:29;99035.97;;;14.35;100.00
71195;BME280;58908;51.426;7.714;2023-09-19T01:02:55;99044.09;;;14.43;100.00
71195;BME280;58908;51.426;7.714;2023-09-19T01:05:21;99044.63;;;14.37;100.00
71195;BME280;58908;51.426;7.714;2023-09-19T01:07:48;99050.31;;;14.53;100.00
71195;BME280;58908;51.426;7.714;2023-09-19T01:10:15;99049.34;;;14.54;100.00
71195;BME280;58908;51.426;7.714;2023-09-19T01:12:47;99052.16;;;14.52;100.00
71195;BME280;58908;51.426;7.714;2023-09-19T01:15:17;99056.59;;;14.52;100.00
71195;BME280;58908;51.426;7.714;2023-09-19T01:17:48;99048.59;;;14.43;100.00
71195;BME280;58908;51.426;7.714;2023-09-19T01:20:21;99056.41;;;14.44;100.00
71195;BME280;58908;51.426;7.714;2023-09-19T01:25:42;99053.03;;;14.42;100.00
71195;BME280;58908;51.426;7.714;2023-09-19T01:28:31;99064.75;;;14.40;100.00
71195;BME280;58908;51.426;7.714;2023-09-19T01:31:03;99064.94;;;14.27;100.00
71195;BME280;58908;51.426;7.714;2023-09-19T01:33:31;99065.31;;;14.23;100.00
71195;BME280;58908;51.426;7.714;2023-09-19T01:36:17;99071.47;;;14.23;100.00
71195;BME280;58908;51.426;7.714;2023-09-19T01:38:43;99072.44;;;14.22;100.00
71195;BME280;58908;51.426;7.714;2023-09-19T01:41:11;99066.03;;;14.25;100.00
71195;BME280;58908;51.426;7.714;2023-09-19T01:43:40;99065.03;;;14.26;100.00
71195;BME280;58908;51.426;7.714;2023-09-19T01:46:09;99077.25;;;14.17;100.00
71195;BME280;58908;51.426;7.714;2023-09-19T01:48:40;99073.16;;;14.13;100.00
71195;BME280;58908;51.426;7.714;2023-09-19T01:51:09;99077.00;;;14.09;100.00
71195;BME280;58908;51.426;7.714;2023-09-19T01:53:36;99078.47;;;14.13;100.00
71195;BME280;58908;51.426;7.714;2023-09-19T01:56:07;99085.94;;;14.19;100.00
71195;BME280;58908;51.426;7.714;2023-09-19T01:58:37;99083.44;;;14.18;100.00
71195;BME280;58908;51.426;7.714;2023-09-19T02:01:05;99084.97;;;14.20;100.00
71195;BME280;58908;51.426;7.714;2023-09-19T02:03:35;99091.03;;;14.11;100.00
71195;BME280;58908;51.426;7.714;2023-09-19T02:06:02;99094.16;;;14.05;100.00
71195;BME280;58908;51.426;7.714;2023-09-19T02:08:30;99092.34;;;14.06;100.00
71195;BME280;58908;51.426;7.714;2023-09-19T02:10:58;99084.63;;;14.03;100.00
71195;BME280;58908;51.426;7.714;2023-09-19T02:13:25;99084.53;;;14.04;100.00
71195;BME280;58908;51.426;7.714;2023-09-19T02:15:52;99081.59;;;14.07;100.00
71195;BME280;58908;51.426;7.714;2023-09-19T02:18:19;99083.09;;;14.00;100.00
71195;BME280;58908;51.426;7.714;2023-09-19T02:20:47;99088.50;;;13.99;100.00
71195;BME280;58908;51.426;7.714;2023-09-19T02:23:13;99087.53;;;14.00;100.00
71195;BME280;58908;51.426;7.714;2023-09-19T02:25:40;99091.91;;;13.90;100.00
71195;BME280;58908;51.426;7.714;2023-09-19T02:28:08;99101.91;;;13.86;100.00
71195;BME280;58908;51.426;7.714;2023-09-19T02:30:35;99101.16;;;13.95;100.00
71195;BME280;58908;51.426;7.714;2023-09-19T02:33:02;99106.38;;;13.86;100.00
71195;BME280;58908;51.426;7.714;2023-09-19T02:35:30;99103.59;;;13.87;100.00
71195;BME280;58908;51.426;7.714;2023-09-19T02:38:01;99109.50;;;13.80;100.00
71195;BME280;58908;51.426;7.714;2023-09-19T02:40:31;99100.38;;;13.84;100.00
71195;BME280;58908;51.426;7.714;2023-09-19T02:43:00;99104.69;;;13.96;100.00
71195;BME280;58908;51.426;7.714;2023-09-19T02:45:27;99098.78;;;13.92;100.00
71195;BME280;58908;51.426;7.714;2023-09-19T02:47:55;99106.72;;;13.92;100.00
71195;BME280;58908;51.426;7.714;2023-09-19T02:50:22;99108.91;;;13.87;100.00
71195;BME280;58908;51.426;7.714;2023-09-19T02:52:48;99113.59;;;13.95;100.00
71195;BME280;58908;51.426;7.714;2023-09-19T02:55:17;99104.81;;;13.83;100.00
71195;BME280;58908;51.426;7.714;2023-09-19T02:57:47;99113.81;;;13.92;100.00
71195;BME280;58908;51.426;7.714;2023-09-19T03:00:14;99120.34;;;13.88;100.00
71195;BME280;58908;51.426;7.714;2023-09-19T03:02:41;99112.78;;;13.83;100.00
71195;BME280;58908;51.426;7.714;2023-09-19T03:05:08;99125.06;;;13.84;100.00
71195;BME280;58908;51.426;7.714;2023-09-19T03:07:36;99129.38;;;13.85;100.00
71195;BME280;58908;51.426;7.714;2023-09-19T03:10:03;99128.41;;;13.86;100.00
71195;BME280;58908;51.426;7.714;2023-09-19T03:12:31;99121.94;;;13.79;100.00
71195;BME280;58908;51.426;7.714;2023-09-19T03:14:58;99124.59;;;13.79;100.00
71195;BME280;58908;51.426;7.714;2023-09-19T03:17:25;99136.25;;;13.88;100.00
71195;BME280;58908;51.426;7.714;2023-09-19T03:19:51;99137.09;;;13.88;100.00
71195;BME280;58908;51.426;7.714;2023-09-19T03:22:18;99143.72;;;13.83;100.00
71195;BME280;58908;51.426;7.714;2023-09-19T03:24:44;99147.84;;;13.76;100.00
71195;BME280;58908;51.426;7.714;2023-09-19T03:27:11;99143.38;;;13.76;100.00
71195;BME280;58908;51.426;7.714;2023-09-19T03:29:40;99149.91;;;13.72;100.00
71195;BME280;58908;51.426;7.714;2023-09-19T03:32:06;99148.56;;;13.78;100.00
71195;BME280;58908;51.426;7.714;2023-09-19T03:34:35;99154.22;;;13.62;100.00
71195;BME280;58908;51.426;7.714;2023-09-19T03:37:02;99152.78;;;13.69;100.00
71195;BME280;58908;51.426;7.714;2023-09-19T03:39:28;99155.56;;;13.68;100.00
71195;BME280;58908;51.426;7.714;2023-09-19T03:41:55;99147.34;;;13.71;100.00
71195;BME280;58908;51.426;7.714;2023-09-19T03:44:21;99148.22;;;13.71;100.00
71195;BME280;58908;51.426;7.714;2023-09-19T03:46:48;99137.72;;;13.70;100.00
71195;BME280;58908;51.426;7.714;2023-09-19T03:49:15;99136.66;;;13.61;100.00
71195;BME280;58908;51.426;7.714;2023-09-19T03:51:41;99139.41;;;13.60;100.00
71195;BME280;58908;51.426;7.714;2023-09-19T03:54:07;99140.53;;;13.57;100.00
71195;BME280;58908;51.426;7.714;2023-09-19T03:56:34;99139.66;;;13.57;100.00
71195;BME280;58908;51.426;7.714;2023-09-19T03:59:00;99136.41;;;13.53;100.00
71195;BME280;58908;51.426;7.714;2023-09-19T04:01:28;99146.53;;;13.48;100.00
71195;BME280;58908;51.426;7.714;2023-09-19T04:03:58;99144.84;;;13.47;100.00
71195;BME280;58908;51.426;7.714;2023-09-19T04:06:32;99144.34;;;13.42;100.00
71195;BME280;58908;51.426;7.714;2023-09-19T04:09:00;99139.31;;;13.39;100.00
71195;BME280;58908;51.426;7.714;2023-09-19T04:11:26;99150.38;;;13.33;100.00
71195;BME280;58908;51.426;7.714;2023-09-19T04:13:52;99139.78;;;13.33;100.00
71195;BME280;58908;51.426;7.714;2023-09-19T04:16:18;99142.81;;;13.29;100.00
71195;BME280;58908;51.426;7.714;2023-09-19T04:18:45;99147.25;;;13.28;100.00
71195;BME280;58908;51.426;7.714;2023-09-19T04:21:13;99153.97;;;13.21;100.00
71195;BME280;58908;51.426;7.714;2023-09-19T04:23:41;99156.25;;;13.15;100.00
71195;BME280;58908;51.426;7.714;2023-09-19T04:26:07;99153.84;;;13.12;100.00
71195;BME280;58908;51.426;7.714;2023-09-19T04:28:34;99159.75;;;13.15;100.00
71195;BME280;58908;51.426;7.714;2023-09-19T04:31:03;99155.78;;;13.21;100.00
71195;BME280;58908;51.426;7.714;2023-09-19T04:33:29;99166.13;;;13.24;100.00
71195;BME280;58908;51.426;7.714;2023-09-19T04:35:56;99159.50;;;13.18;100.00
71195;BME280;58908;51.426;7.714;2023-09-19T04:38:24;99150.38;;;13.22;100.00
71195;BME280;58908;51.426;7.714;2023-09-19T04:40:51;99149.88;;;13.17;100.00
71195;BME280;58908;51.426;7.714;2023-09-19T04:43:23;99157.38;;;13.23;100.00
71195;BME280;58908;51.426;7.714;2023-09-19T04:45:49;99157.81;;;13.17;100.00
71195;BME280;58908;51.426;7.714;2023-09-19T04:48:16;99165.41;;;13.22;100.00
71195;BME280;58908;51.426;7.714;2023-09-19T04:50:43;99166.84;;;13.15;100.00
71195;BME280;58908;51.426;7.714;2023-09-19T04:53:09;99174.44;;;13.19;100.00
71195;BME280;58908;51.426;7.714;2023-09-19T04:55:36;99180.81;;;13.17;100.00
71195;BME280;58908;51.426;7.714;2023-09-19T04:58:03;99180.94;;;13.15;100.00
71195;BME280;58908;51.426;7.714;2023-09-19T05:00:29;99181.28;;;13.11;100.00
71195;BME280;58908;51.426;7.714;2023-09-19T05:03:00;99183.69;;;13.14;100.00
71195;BME280;58908;51.426;7.714;2023-09-19T05:05:26;99175.41;;;13.18;100.00
71195;BME280;58908;51.426;7.714;2023-09-19T05:07:53;99173.34;;;13.22;100.00
71195;BME280;58908;51.426;7.714;2023-09-19T05:10:20;99169.41;;;13.27;100.00
71195;BME280;58908;51.426;7.714;2023-09-19T05:12:48;99164.81;;;13.29;100.00
71195;BME280;58908;51.426;7.714;2023-09-19T05:15:16;99166.38;;;13.32;100.00
71195;BME280;58908;51.426;7.714;2023-09-19T05:17:47;99169.28;;;13.29;100.00
71195;BME280;58908;51.426;7.714;2023-09-19T05:20:13;99170.34;;;13.26;100.00
71195;BME280;58908;51.426;7.714;2023-09-19T05:22:40;99182.03;;;13.24;100.00
71195;BME280;58908;51.426;7.714;2023-09-19T05:25:08;99188.91;;;13.26;100.00
71195;BME280;58908;51.426;7.714;2023-09-19T05:27:34;99190.22;;;13.21;100.00
71195;BME280;58908;51.426;7.714;2023-09-19T05:30:02;99194.81;;;13.30;100.00
71195;BME280;58908;51.426;7.714;2023-09-19T05:32:28;99196.25;;;13.34;100.00
71195;BME280;58908;51.426;7.714;2023-09-19T05:34:55;99206.38;;;13.29;100.00
71195;BME280;58908;51.426;7.714;2023-09-19T05:37:21;99204.78;;;13.26;100.00
71195;BME280;58908;51.426;7.714;2023-09-19T05:39:48;99220.81;;;13.36;100.00
71195;BME280;58908;51.426;7.714;2023-09-19T05:42:14;99223.72;;;13.33;100.00
71195;BME280;58908;51.426;7.714;2023-09-19T05:44:40;99231.66;;;13.33;100.00
71195;BME280;58908;51.426;7.714;2023-09-19T05:47:08;99234.78;;;13.38;100.00
71195;BME280;58908;51.426;7.714;2023-09-19T05:49:34;99240.94;;;13.38;100.00
71195;BME280;58908;51.426;7.714;2023-09-19T05:52:03;99238.03;;;13.41;100.00
71195;BME280;58908;51.426;7.714;2023-09-19T05:54:29;99237.09;;;13.53;100.00
71195;BME280;58908;51.426;7.714;2023-09-19T05:56:56;99232.41;;;13.57;100.00
71195;BME280;58908;51.426;7.714;2023-09-19T05:59:23;99234.59;;;13.63;100.00
71195;BME280;58908;51.426;7.714;2023-09-19T06:01:49;99244.34;;;13.62;100.00
71195;BME280;58908;51.426;7.714;2023-09-19T06:04:18;99250.50;;;13.63;100.00
71195;BME280;58908;51.426;7.714;2023-09-19T06:06:45;99247.59;;;13.66;100.00
71195;BME280;58908;51.426;7.714;2023-09-19T06:09:13;99254.34;;;13.70;100.00
71195;BME280;58908;51.426;7.714;2023-09-19T06:11:41;99254.13;;;13.73;100.00
71195;BME280;58908;51.426;7.714;2023-09-19T06:14:07;99247.38;;;13.80;100.00
71195;BME280;58908;51.426;7.714;2023-09-19T06:16:35;99256.19;;;13.80;100.00
71195;BME280;58908;51.426;7.714;2023-09-19T06:19:03;99248.34;;;13.79;100.00
71195;BME280;58908;51.426;7.714;2023-09-19T06:21:33;99249.78;;;13.83;100.00
71195;BME280;58908;51.426;7.714;2023-09-19T06:23:59;99247.97;;;13.94;100.00
71195;BME280;58908;51.426;7.714;2023-09-19T06:26:25;99251.50;;;13.95;100.00
71195;BME280;58908;51.426;7.714;2023-09-19T06:28:53;99242.44;;;13.97;100.00
71195;BME280;58908;51.426;7.714;2023-09-19T06:31:20;99247.97;;;14.05;100.00
71195;BME280;58908;51.426;7.714;2023-09-19T06:33:48;99255.06;;;14.05;100.00
71195;BME280;58908;51.426;7.714;2023-09-19T06:36:14;99242.78;;;14.04;100.00
71195;BME280;58908;51.426;7.714;2023-09-19T06:38:42;99245.56;;;14.13;100.00
71195;BME280;58908;51.426;7.714;2023-09-19T06:41:08;99250.53;;;14.18;100.00
71195;BME280;58908;51.426;7.714;2023-09-19T06:43:34;99253.19;;;14.18;100.00
71195;BME280;58908;51.426;7.714;2023-09-19T06:46:01;99247.28;;;14.25;100.00
71195;BME280;58908;51.426;7.714;2023-09-19T06:48:27;99255.06;;;14.38;100.00
71195;BME280;58908;51.426;7.714;2023-09-19T06:50:54;99264.50;;;14.31;100.00
71195;BME280;58908;51.426;7.714;2023-09-19T06:53:21;99263.03;;;14.38;100.00
71195;BME280;58908;51.426;7.714;2023-09-19T06:55:50;99265.09;;;14.45;100.00
71195;BME280;58908;51.426;7.714;2023-09-19T06:58:16;99254.25;;;14.37;100.00
71195;BME280;58908;51.426;7.714;2023-09-19T07:00:42;99253.75;;;14.43;100.00
71195;BME280;58908;51.426;7.714;2023-09-19T07:03:09;99260.47;;;14.58;100.00
71195;BME280;58908;51.426;7.714;2023-09-19T07:05:37;99253.94;;;14.62;100.00
71195;BME280;58908;51.426;7.714;2023-09-19T07:08:04;99263.94;;;14.69;100.00
71195;BME280;58908;51.426;7.714;2023-09-19T07:10:31;99270.34;;;14.78;100.00
71195;BME280;58908;51.426;7.714;2023-09-19T07:12:59;99275.50;;;14.79;100.00
71195;BME280;58908;51.426;7.714;2023-09-19T07:15:25;99271.88;;;14.80;100.00
71195;BME280;58908;51.426;7.714;2023-09-19T07:17:51;99280.44;;;14.84;100.00
71195;BME280;58908;51.426;7.714;2023-09-19T07:20:18;99288.28;;;14.85;100.00
71195;BME280;58908;51.426;7.714;2023-09-19T07:22:45;99290.22;;;14.83;100.00
71195;BME280;58908;51.426;7.714;2023-09-19T07:25:12;99277.63;;;14.96;100.00
71195;BME280;58908;51.426;7.714;2023-09-19T07:27:39;99277.81;;;15.04;100.00
71195;BME280;58908;51.426;7.714;2023-09-19T07:30:07;99271.50;;;15.16;100.00
71195;BME280;58908;51.426;7.714;2023-09-19T07:32:34;99258.78;;;15.20;100.00
71195;BME280;58908;51.426;7.714;2023-09-19T07:35:01;99269.09;;;15.13;100.00
71195;BME280;58908;51.426;7.714;2023-09-19T07:37:28;99268.66;;;15.29;100.00
71195;BME280;58908;51.426;7.714;2023-09-19T07:39:56;99274.31;;;15.35;100.00
71195;BME280;58908;51.426;7.714;2023-09-19T07:42:22;99266.22;;;15.57;100.00
71195;BME280;58908;51.426;7.714;2023-09-19T07:44:48;99274.50;;;15.64;100.00
71195;BME280;58908;51.426;7.714;2023-09-19T07:47:17;99277.19;;;15.64;100.00
71195;BME280;58908;51.426;7.714;2023-09-19T07:49:45;99271.38;;;15.79;100.00
71195;BME280;58908;51.426;7.714;2023-09-19T07:52:12;99277.03;;;15.86;100.00
71195;BME280;58908;51.426;7.714;2023-09-19T07:54:39;99265.09;;;15.80;100.00
71195;BME280;58908;51.426;7.714;2023-09-19T07:57:06;99261.59;;;15.80;100.00
71195;BME280;58908;51.426;7.714;2023-09-19T07:59:33;99272.50;;;16.07;100.00
71195;BME280;58908;51.426;7.714;2023-09-19T08:01:59;99264.34;;;15.99;100.00
71195;BME280;58908;51.426;7.714;2023-09-19T08:04:27;99287.47;;;15.98;100.00
71195;BME280;58908;51.426;7.714;2023-09-19T08:06:55;99265.72;;;15.93;100.00
71195;BME280;58908;51.426;7.714;2023-09-19T08:09:23;99268.22;;;15.85;100.00
71195;BME280;58908;51.426;7.714;2023-09-19T08:11:50;99263.53;;;15.98;100.00
71195;BME280;58908;51.426;7.714;2023-09-19T08:14:16;99263.44;;;16.09;100.00
71195;BME280;58908;51.426;7.714;2023-09-19T08:16:43;99269.66;;;16.29;100.00
71195;BME280;58908;51.426;7.714;2023-09-19T08:19:09;99256.88;;;16.53;100.00
71195;BME280;58908;51.426;7.714;2023-09-19T08:21:37;99260.03;;;16.37;100.00
71195;BME280;58908;51.426;7.714;2023-09-19T08:24:04;99263.94;;;16.73;100.00
71195;BME280;58908;51.426;7.714;2023-09-19T08:26:30;99260.31;;;17.02;100.00
71195;BME280;58908;51.426;7.714;2023-09-19T08:28:57;99268.00;;;16.95;100.00
71195;BME280;58908;51.426;7.714;2023-09-19T08:31:24;99258.47;;;16.74;100.00
71195;BME280;58908;51.426;7.714;2023-09-19T08:33:50;99261.84;;;16.76;100.00
71195;BME280;58908;51.426;7.714;2023-09-19T08:36:21;99266.06;;;17.16;100.00
71195;BME280;58908;51.426;7.714;2023-09-19T08:38:48;99268.84;;;17.72;100.00
71195;BME280;58908;51.426;7.714;2023-09-19T08:41:14;99262.44;;;17.46;100.00
71195;BME280;58908;51.426;7.714;2023-09-19T08:43:43;99273.50;;;17.13;100.00
71195;BME280;58908;51.426;7.714;2023-09-19T08:46:10;99275.59;;;17.09;100.00
71195;BME280;58908;51.426;7.714;2023-09-19T08:48:39;99284.72;;;17.07;100.00
71195;BME280;58908;51.426;7.714;2023-09-19T08:51:06;99285.41;;;16.90;100.00
71195;BME280;58908;51.426;7.714;2023-09-19T08:53:35;99286.50;;;16.69;100.00
71195;BME280;58908;51.426;7.714;2023-09-19T08:56:04;99309.16;;;16.54;100.00
71195;BME280;58908;51.426;7.714;2023-09-19T08:58:38;99304.22;;;16.49;100.00
71195;BME280;58908;51.426;7.714;2023-09-19T09:01:05;99307.97;;;16.37;100.00
71195;BME280;58908;51.426;7.714;2023-09-19T09:03:35;99295.38;;;17.16;100.00
71195;BME280;58908;51.426;7.714;2023-09-19T09:06:03;99273.44;;;17.89;100.00
71195;BME280;58908;51.426;7.714;2023-09-19T09:08:30;99285.72;;;17.44;100.00
71195;BME280;58908;51.426;7.714;2023-09-19T09:10:56;99264.34;;;17.72;100.00
71195;BME280;58908;51.426;7.714;2023-09-19T09:13:24;99269.47;;;17.93;100.00
71195;BME280;58908;51.426;7.714;2023-09-19T09:15:51;99256.00;;;18.21;100.00
71195;BME280;58908;51.426;7.714;2023-09-19T09:18:19;99251.72;;;18.47;100.00
71195;BME280;58908;51.426;7.714;2023-09-19T09:20:45;99245.72;;;18.63;100.00
71195;BME280;58908;51.426;7.714;2023-09-19T09:23:13;99251.41;;;18.14;100.00
71195;BME280;58908;51.426;7.714;2023-09-19T09:25:49;99239.50;;;18.72;100.00
71195;BME280;58908;51.426;7.714;2023-09-19T09:28:19;99248.94;;;18.39;100.00
71195;BME280;58908;51.426;7.714;2023-09-19T09:30:47;99259.13;;;18.53;100.00
71195;BME280;58908;51.426;7.714;2023-09-19T09:33:14;99248.56;;;18.25;100.00
71195;BME280;58908;51.426;7.714;2023-09-19T09:35:48;99257.81;;;18.40;100.00
71195;BME280;58908;51.426;7.714;2023-09-19T09:38:17;99254.25;;;18.12;100.00
71195;BME280;58908;51.426;7.714;2023-09-19T09:40:46;99255.34;;;17.83;100.00
71195;BME280;58908;51.426;7.714;2023-09-19T09:43:24;99241.38;;;18.35;100.00
71195;BME280;58908;51.426;7.714;2023-09-19T09:45:59;99243.25;;;18.52;100.00
71195;BME280;58908;51.426;7.714;2023-09-19T09:48:35;99246.81;;;18.43;100.00
71195;BME280;58908;51.426;7.714;2023-09-19T09:51:04;99234.50;;;18.32;100.00
71195;BME280;58908;51.426;7.714;2023-09-19T09:53:32;99235.06;;;18.98;100.00
71195;BME280;58908;51.426;7.714;2023-09-19T09:56:00;99222.00;;;18.95;98.79
71195;BME280;58908;51.426;7.714;2023-09-19T09:58:27;99234.88;;;18.82;99.44
71195;BME280;58908;51.426;7.714;2023-09-19T10:00:55;99236.34;;;18.32;100.00
71195;BME280;58908;51.426;7.714;2023-09-19T10:03:31;99239.84;;;18.59;100.00
71195;BME280;58908;51.426;7.714;2023-09-19T10:05:59;99237.41;;;18.66;99.82
71195;BME280;58908;51.426;7.714;2023-09-19T10:08:27;99235.38;;;18.23;98.43
71195;BME280;58908;51.426;7.714;2023-09-19T10:10:56;99250.28;;;18.16;100.00
71195;BME280;58908;51.426;7.714;2023-09-19T10:13:30;99235.16;;;18.44;100.00
71195;BME280;58908;51.426;7.714;2023-09-19T10:15:58;99232.13;;;18.56;99.97
71195;BME280;58908;51.426;7.714;2023-09-19T10:18:25;99233.53;;;18.24;98.67
71195;BME280;58908;51.426;7.714;2023-09-19T10:20:54;99241.84;;;18.21;100.00
71195;BME280;58908;51.426;7.714;2023-09-19T10:23:22;99237.16;;;18.32;98.44
71195;BME280;58908;51.426;7.714;2023-09-19T10:25:50;99234.69;;;18.48;99.16
71195;BME280;58908;51.426;7.714;2023-09-19T10:28:18;99211.25;;;18.42;96.52
71195;BME280;58908;51.426;7.714;2023-09-19T10:30:48;99225.50;;;18.60;99.36
71195;BME280;58908;51.426;7.714;2023-09-19T10:33:15;99211.69;;;18.65;97.87
71195;BME280;58908;51.426;7.714;2023-09-19T10:35:43;99213.13;;;18.77;98.77
71195;BME280;58908;51.426;7.714;2023-09-19T10:38:12;99209.56;;;18.68;96.00
71195;BME280;58908;51.426;7.714;2023-09-19T10:40:39;99201.09;;;18.73;96.08
71195;BME280;58908;51.426;7.714;2023-09-19T10:43:11;99202.69;;;18.83;96.09
71195;BME280;58908;51.426;7.714;2023-09-19T10:45:38;99195.34;;;19.03;94.69
71195;BME280;58908;51.426;7.714;2023-09-19T10:48:05;99192.88;;;18.92;93.47
71195;BME280;58908;51.426;7.714;2023-09-19T10:50:33;99185.56;;;18.59;92.03
71195;BME280;58908;51.426;7.714;2023-09-19T10:53:02;99177.53;;;18.94;91.26
71195;BME280;58908;51.426;7.714;2023-09-19T10:55:33;99171.06;;;18.96;90.45
71195;BME280;58908;51.426;7.714;2023-09-19T10:58:01;99159.50;;;19.13;88.91
71195;BME280;58908;51.426;7.714;2023-09-19T11:00:30;99172.28;;;19.19;90.91
71195;BME280;58908;51.426;7.714;2023-09-19T11:03:18;99148.97;;;19.12;86.92
71195;BME280;58908;51.426;7.714;2023-09-19T11:06:00;99174.47;;;19.06;88.49
71195;BME280;58908;51.426;7.714;2023-09-19T11:08:28;99180.69;;;18.89;90.05
71195;BME280;58908;51.426;7.714;2023-09-19T11:10:56;99185.28;;;18.97;88.43
71195;BME280;58908;51.426;7.714;2023-09-19T11:13:24;99173.19;;;18.93;87.75
71195;BME280;58908;51.426;7.714;2023-09-19T11:18:56;99163.72;;;18.98;87.27
71195;BME280;58908;51.426;7.714;2023-09-19T11:21:38;99157.97;;;19.11;85.47
71195;BME280;58908;51.426;7.714;2023-09-19T11:24:27;99145.06;;;19.24;84.66
71195;BME280;58908;51.426;7.714;2023-09-19T11:27:09;99152.31;;;19.14;83.37
71195;BME280;58908;51.426;7.714;2023-09-19T11:29:38;99169.59;;;19.02;84.76
71195;BME280;58908;51.426;7.714;2023-09-19T11:32:04;99153.03;;;18.98;83.02
71195;BME280;58908;51.426;7.714;2023-09-19T11:34:41;99171.69;;;18.90;87.38
71195;BME280;58908;51.426;7.714;2023-09-19T11:40:05;99134.78;;;18.76;81.29
71195;BME280;58908;51.426;7.714;2023-09-19T11:42:45;99149.53;;;18.80;81.74
71195;BME280;58908;51.426;7.714;2023-09-19T11:48:04;99171.06;;;18.79;87.07
71195;BME280;58908;51.426;7.714;2023-09-19T11:50:31;99167.25;;;18.81;84.71
71195;BME280;58908;51.426;7.714;2023-09-19T11:52:59;99163.72;;;18.81;84.23
71195;BME280;58908;51.426;7.714;2023-09-19T11:55:28;99140.00;;;18.78;81.75
71195;BME280;58908;51.426;7.714;2023-09-19T11:57:57;99141.75;;;18.87;81.67
71195;BME280;58908;51.426;7.714;2023-09-19T12:00:24;99149.81;;;19.12;81.29
71195;BME280;58908;51.426;7.714;2023-09-19T12:02:52;99158.13;;;19.27;83.14
71195;BME280;58908;51.426;7.714;2023-09-19T12:05:27;99160.72;;;19.36;82.25
71195;BME280;58908;51.426;7.714;2023-09-19T12:07:54;99146.44;;;19.53;80.43
71195;BME280;58908;51.426;7.714;2023-09-19T12:10:20;99172.22;;;19.37;82.08
71195;BME280;58908;51.426;7.714;2023-09-19T12:12:48;99151.53;;;19.39;81.14
71195;BME280;58908;51.426;7.714;2023-09-19T12:15:22;99159.28;;;19.24;80.66
71195;BME280;58908;51.426;7.714;2023-09-19T12:17:49;99163.84;;;19.14;82.06
71195;BME280;58908;51.426;7.714;2023-09-19T12:20:16;99166.09;;;19.19;82.51
71195;BME280;58908;51.426;7.714;2023-09-19T12:22:42;99158.09;;;19.44;82.12
71195;BME280;58908;51.426;7.714;2023-09-19T12:25:09;99168.53;;;19.55;83.61
71195;BME280;58908;51.426;7.714;2023-09-19T12:27:41;99156.03;;;19.63;82.05
71195;BME280;58908;51.426;7.714;2023-09-19T12:30:08;99151.03;;;19.43;82.42
71195;BME280;58908;51.426;7.714;2023-09-19T12:32:36;99167.94;;;19.44;84.10
71195;BME280;58908;51.426;7.714;2023-09-19T12:35:05;99142.59;;;19.55;83.71
71195;BME280;58908;51.426;7.714;2023-09-19T12:37:36;99146.06;;;19.48;83.81
71195;BME280;58908;51.426;7.714;2023-09-19T12:40:03;99164.53;;;19.59;85.42
71195;BME280;58908;51.426;7.714;2023-09-19T12:42:42;99155.56;;;19.68;85.88
71195;BME280;58908;51.426;7.714;2023-09-19T12:45:09;99158.44;;;19.74;85.34
71195;BME280;58908;51.426;7.714;2023-09-19T12:47:40;99131.50;;;19.76;82.16
71195;BME280;58908;51.426;7.714;2023-09-19T12:50:08;99154.84;;;19.58;84.50
71195;BME280;58908;51.426;7.714;2023-09-19T12:52:40;99145.13;;;19.57;84.93
71195;BME280;58908;51.426;7.714;2023-09-19T12:55:06;99159.56;;;19.39;85.12
71195;BME280;58908;51.426;7.714;2023-09-19T12:57:34;99167.69;;;19.29;86.70
71195;BME280;58908;51.426;7.714;2023-09-19T13:00:00;99166.00;;;19.28;87.46
71195;BME280;58908;51.426;7.714;2023-09-19T13:02:27;99166.63;;;19.22;87.22
71195;BME280;58908;51.426;7.714;2023-09-19T13:04:55;99146.22;;;19.04;86.23
71195;BME280;58908;51.426;7.714;2023-09-19T13:07:40;99153.97;;;18.89;87.64
71195;BME280;58908;51.426;7.714;2023-09-19T13:10:08;99152.28;;;19.06;87.38